Soquel, California
Current Conditions -  °F | °C
As of 10:53 PM on Saturday 20 Dec 2014 (Local Time) from KWVI Reporting Station
Broken Clouds Broken Clouds  
Wind Chill: 58°   Ceiling: 5000
Heat Index: 58°   Visibility: 10mi
Dew Point: 55°   Wind: 3mph
Humidity: 90%   Direction: 340°NNW
Pressure: 30.29"   Gusts: NA
Location:  36.99°N, 121.95°W
Report Text: KWVI 210653Z AUTO 34003KT 10SM FEW029 BKN050 BKN080 14/13 A3029 RMK AO2 SLP256 T01440128
Loading
Personal Weather Stations






























Interactive Weather Map New forecast layout! Learn more

10-Day Weather Forecast

Advertisements
Track Severe Weather on mobile